createdAt,value
2017-11-04T00:01:50.235Z,8.60
2017-11-04T00:04:18.425Z,8.60
2017-11-04T00:06:48.548Z,8.60
2017-11-04T00:09:18.551Z,8.60
2017-11-04T00:11:48.676Z,8.60
2017-11-04T00:14:17.972Z,8.60
2017-11-04T00:16:49.120Z,8.80
2017-11-04T00:19:19.797Z,8.70
2017-11-04T00:21:49.937Z,8.80
2017-11-04T00:24:19.565Z,8.80
2017-11-04T00:26:49.307Z,8.80
2017-11-04T00:29:17.044Z,8.70
2017-11-04T00:31:44.898Z,8.70
2017-11-04T00:34:13.698Z,8.90
2017-11-04T00:36:41.490Z,8.80
2017-11-04T00:39:09.150Z,8.90
2017-11-04T00:41:36.705Z,8.80
2017-11-04T00:44:04.330Z,8.90
2017-11-04T00:46:31.856Z,9.00
2017-11-04T00:49:00.956Z,9.00
2017-11-04T00:51:30.102Z,9.00
2017-11-04T00:53:57.686Z,8.90
2017-11-04T00:56:25.998Z,8.90
2017-11-04T00:58:56.644Z,9.00
2017-11-04T01:01:26.289Z,9.10
2017-11-04T01:03:54.995Z,9.10
2017-11-04T01:06:23.711Z,9.10
2017-11-04T01:08:52.787Z,9.00
2017-11-04T01:11:23.358Z,9.10
2017-11-04T01:13:53.568Z,9.00
2017-11-04T01:16:23.874Z,9.00
2017-11-04T01:18:54.040Z,9.00
2017-11-04T01:21:23.572Z,9.20
2017-11-04T01:23:51.975Z,9.20
2017-11-04T01:26:21.016Z,9.10
2017-11-04T01:28:53.855Z,9.20
2017-11-04T01:31:23.160Z,9.20
2017-11-04T01:33:53.049Z,9.20
2017-11-04T01:36:21.511Z,9.20
2017-11-04T01:38:49.532Z,9.10
2017-11-04T01:41:18.594Z,9.10
2017-11-04T01:43:48.651Z,9.00
2017-11-04T01:46:19.614Z,9.10
2017-11-04T01:48:49.612Z,9.10
2017-11-04T01:51:20.899Z,9.20
2017-11-04T01:53:49.848Z,9.20
2017-11-04T01:56:19.136Z,9.10
2017-11-04T02:02:22.943Z,9.10
2017-11-04T02:04:53.810Z,9.10
2017-11-04T02:07:25.575Z,9.10
2017-11-04T02:09:56.478Z,9.10
2017-11-04T02:12:26.806Z,9.10
2017-11-04T02:14:57.144Z,9.20
2017-11-04T02:17:26.689Z,9.20
2017-11-04T02:19:57.061Z,9.10
2017-11-04T02:22:27.058Z,9.10
2017-11-04T02:24:56.996Z,9.10
2017-11-04T02:27:28.681Z,9.10
2017-11-04T02:29:58.803Z,9.10
2017-11-04T02:32:30.373Z,9.00
2017-11-04T02:35:00.532Z,9.00
2017-11-04T02:37:33.438Z,9.10
2017-11-04T02:40:01.873Z,9.00
2017-11-04T02:42:30.621Z,9.00
2017-11-04T02:44:58.222Z,9.00
2017-11-04T02:47:28.696Z,9.10
2017-11-04T02:50:00.204Z,9.10
2017-11-04T02:52:29.832Z,9.20
2017-11-04T02:55:00.185Z,9.10
2017-11-04T02:57:30.502Z,9.20
2017-11-04T03:00:01.072Z,9.20
2017-11-04T03:02:30.906Z,9.30
2017-11-04T03:05:01.255Z,9.20
2017-11-04T03:07:31.045Z,9.20
2017-11-04T03:10:00.634Z,9.20
2017-11-04T03:12:30.053Z,9.20
2017-11-04T03:15:00.220Z,9.30
2017-11-04T03:17:30.941Z,9.30
2017-11-04T03:20:00.292Z,9.40
2017-11-04T03:22:30.331Z,9.50
2017-11-04T03:25:00.597Z,9.50
2017-11-04T03:27:30.627Z,9.50
2017-11-04T03:30:00.317Z,9.50
2017-11-04T03:32:30.405Z,9.50
2017-11-04T03:35:00.386Z,9.50
2017-11-04T03:37:30.455Z,9.40
2017-11-04T03:39:59.496Z,9.50
2017-11-04T03:42:30.932Z,9.60
2017-11-04T03:45:03.061Z,9.70
2017-11-04T03:47:31.801Z,9.80
2017-11-04T03:50:01.501Z,9.90
2017-11-04T03:52:31.345Z,9.90
2017-11-04T03:55:01.393Z,10.00
2017-11-04T03:57:31.019Z,9.90
2017-11-04T04:00:00.819Z,9.90
2017-11-04T04:02:31.770Z,10.00
2017-11-04T04:05:00.991Z,10.10
2017-11-04T04:07:30.777Z,10.20
2017-11-04T04:10:02.695Z,10.30
2017-11-04T04:12:31.079Z,10.30
2017-11-04T04:15:01.092Z,10.20
2017-11-04T04:17:30.451Z,10.30
2017-11-04T04:20:01.636Z,10.30
2017-11-04T04:22:32.670Z,10.30
2017-11-04T04:25:01.446Z,10.30
2017-11-04T04:27:30.681Z,10.30
2017-11-04T04:29:59.091Z,10.30
2017-11-04T04:32:26.653Z,10.20
2017-11-04T04:34:55.585Z,10.00
2017-11-04T04:37:24.176Z,10.00
2017-11-04T04:39:57.347Z,10.00
2017-11-04T04:42:29.957Z,10.10
2017-11-04T04:44:59.978Z,10.10
2017-11-04T04:47:29.582Z,10.00
2017-11-04T04:50:00.068Z,10.00
2017-11-04T04:52:31.885Z,10.00
2017-11-04T04:55:00.810Z,10.10
2017-11-04T04:57:30.023Z,10.00
2017-11-04T04:59:59.885Z,10.10
2017-11-04T05:02:30.644Z,10.10
2017-11-04T05:05:00.889Z,10.10
2017-11-04T05:07:31.015Z,10.10
2017-11-04T05:10:00.723Z,10.10
2017-11-04T05:12:30.413Z,10.20
2017-11-04T05:14:59.890Z,10.10
2017-11-04T05:17:29.821Z,10.00
2017-11-04T05:20:00.825Z,9.90
2017-11-04T05:22:31.008Z,9.80
2017-11-04T05:25:01.871Z,9.70
2017-11-04T05:27:29.436Z,9.70
2017-11-04T05:29:58.262Z,9.60
2017-11-04T05:32:26.676Z,9.70
2017-11-04T05:34:55.215Z,9.60
2017-11-04T05:37:23.064Z,9.70
2017-11-04T05:39:51.098Z,9.80
2017-11-04T05:42:22.138Z,9.80
2017-11-04T05:44:54.506Z,9.80
2017-11-04T05:47:23.215Z,9.80
2017-11-04T05:49:55.292Z,9.80
2017-11-04T05:52:26.572Z,9.90
2017-11-04T05:54:54.285Z,9.90
2017-11-04T05:57:23.402Z,9.90
2017-11-04T05:59:51.816Z,9.90
2017-11-04T06:02:20.955Z,10.00
2017-11-04T06:04:52.087Z,10.00
2017-11-04T06:07:22.559Z,10.10
2017-11-04T06:09:53.228Z,10.10
2017-11-04T06:12:22.716Z,10.10
2017-11-04T06:14:53.773Z,10.20
2017-11-04T06:17:26.046Z,10.10
2017-11-04T06:19:58.452Z,10.20
2017-11-04T06:22:30.226Z,10.20
2017-11-04T06:24:59.870Z,10.30
2017-11-04T06:27:30.144Z,10.20
2017-11-04T06:29:59.097Z,10.20
2017-11-04T06:32:30.725Z,10.20
2017-11-04T06:35:00.000Z,10.20
2017-11-04T06:37:30.463Z,10.30
2017-11-04T06:39:59.885Z,10.30
2017-11-04T06:42:30.271Z,10.30
2017-11-04T06:44:59.906Z,10.30
2017-11-04T06:47:30.789Z,10.40
2017-11-04T06:50:00.026Z,10.30
2017-11-04T06:52:29.336Z,10.30
2017-11-04T06:55:04.234Z,10.30
2017-11-04T06:57:31.997Z,10.30
2017-11-04T07:00:00.514Z,10.50
2017-11-04T07:02:29.574Z,10.50
2017-11-04T07:04:59.339Z,10.60
2017-11-04T07:07:29.673Z,10.60
2017-11-04T07:09:59.968Z,10.70
2017-11-04T07:12:30.344Z,10.70
2017-11-04T07:14:58.808Z,10.80
2017-11-04T07:17:30.279Z,10.90
2017-11-04T07:19:58.696Z,10.90
2017-11-04T07:22:29.414Z,11.00
2017-11-04T07:24:57.444Z,11.10
2017-11-04T07:27:29.371Z,11.10
2017-11-04T07:29:57.446Z,11.20
2017-11-04T07:32:28.103Z,11.40
2017-11-04T07:34:56.533Z,11.40
2017-11-04T07:37:25.608Z,11.50
2017-11-04T07:39:54.397Z,11.60
2017-11-04T07:42:22.544Z,11.80
2017-11-04T07:44:51.657Z,11.90
2017-11-04T07:47:21.487Z,12.00
2017-11-04T07:49:51.543Z,12.20
2017-11-04T07:52:22.278Z,12.60
2017-11-04T07:54:52.740Z,12.70
2017-11-04T07:57:23.615Z,12.80
2017-11-04T07:59:53.428Z,13.10
2017-11-04T08:02:22.792Z,13.20
2017-11-04T08:04:53.107Z,13.40
2017-11-04T08:07:21.697Z,13.60
2017-11-04T08:09:52.528Z,14.00
2017-11-04T08:12:21.258Z,14.10
2017-11-04T08:14:50.523Z,14.30
2017-11-04T08:17:24.712Z,14.60
2017-11-04T08:19:55.814Z,14.60
2017-11-04T08:22:26.892Z,14.80
2017-11-04T08:24:55.424Z,14.80
2017-11-04T08:27:23.855Z,15.00
2017-11-04T08:29:53.281Z,15.00
2017-11-04T08:32:24.805Z,15.10
2017-11-04T08:34:54.766Z,15.20
2017-11-04T08:37:27.202Z,15.30
2017-11-04T08:39:56.389Z,15.50
2017-11-04T08:42:25.373Z,15.60
2017-11-04T08:44:54.476Z,15.70
2017-11-04T08:47:23.737Z,15.80
2017-11-04T08:49:56.480Z,15.90
2017-11-04T08:52:27.307Z,16.00
2017-11-04T08:54:57.647Z,15.90
2017-11-04T08:57:27.124Z,16.00
2017-11-04T08:59:56.764Z,16.00
2017-11-04T09:02:28.081Z,16.20
2017-11-04T09:04:56.970Z,16.20
2017-11-04T09:07:26.294Z,16.30
2017-11-04T09:09:54.967Z,16.40
2017-11-04T09:12:27.034Z,16.40
2017-11-04T09:14:58.244Z,16.50
2017-11-04T09:17:29.399Z,16.60
2017-11-04T09:19:58.382Z,16.60
2017-11-04T09:22:27.949Z,16.70
2017-11-04T09:24:56.347Z,16.70
2017-11-04T09:27:24.918Z,16.80
2017-11-04T09:29:53.644Z,16.90
2017-11-04T09:32:21.750Z,16.90
2017-11-04T09:34:51.883Z,16.90
2017-11-04T09:37:22.756Z,17.00
2017-11-04T09:39:54.926Z,17.10
2017-11-04T09:42:23.686Z,17.10
2017-11-04T09:44:54.869Z,17.10
2017-11-04T09:47:26.264Z,17.20
2017-11-04T09:49:54.359Z,17.20
2017-11-04T09:52:23.250Z,17.30
2017-11-04T09:54:52.427Z,17.30
2017-11-04T09:57:23.670Z,17.30
2017-11-04T09:59:52.257Z,17.30
2017-11-04T10:02:22.818Z,17.30
2017-11-04T10:04:50.872Z,17.30
2017-11-04T10:07:18.941Z,17.30
2017-11-04T10:09:48.550Z,17.30
2017-11-04T10:12:21.298Z,17.20
2017-11-04T10:14:50.821Z,17.20
2017-11-04T10:17:19.727Z,17.20
2017-11-04T10:19:47.973Z,17.10
2017-11-04T10:22:19.230Z,17.00
2017-11-04T10:24:51.523Z,17.00
2017-11-04T10:27:20.738Z,16.90
2017-11-04T10:29:52.142Z,16.90
2017-11-04T10:32:21.949Z,16.90
2017-11-04T10:34:50.601Z,17.00
2017-11-04T10:37:20.414Z,17.00
2017-11-04T10:39:49.299Z,17.10
2017-11-04T10:42:20.057Z,17.20
2017-11-04T10:44:50.941Z,17.20
2017-11-04T10:47:20.980Z,17.30
2017-11-04T10:49:53.001Z,17.30
2017-11-04T10:52:23.799Z,17.30
2017-11-04T10:54:57.888Z,17.40
2017-11-04T10:57:30.563Z,17.40
2017-11-04T11:00:00.609Z,17.40
2017-11-04T11:02:31.582Z,17.50
2017-11-04T11:05:01.318Z,17.50
2017-11-04T11:07:30.099Z,17.50
2017-11-04T11:10:00.266Z,17.40
2017-11-04T11:12:30.941Z,17.50
2017-11-04T11:14:58.564Z,17.60
2017-11-04T11:17:32.293Z,17.70
2017-11-04T11:19:59.859Z,17.70
2017-11-04T11:22:27.459Z,17.70
2017-11-04T11:24:58.211Z,17.70
2017-11-04T11:27:27.920Z,17.80
2017-11-04T11:29:57.408Z,17.80
2017-11-04T11:32:27.295Z,17.90
2017-11-04T11:34:59.550Z,17.90
2017-11-04T11:37:28.264Z,17.90
2017-11-04T11:39:57.432Z,17.90
2017-11-04T11:42:27.652Z,17.90
2017-11-04T11:44:58.218Z,17.90
2017-11-04T11:47:27.183Z,17.90
2017-11-04T11:49:57.668Z,18.00
2017-11-04T11:52:26.272Z,17.90
2017-11-04T11:54:55.722Z,17.80
2017-11-04T11:57:26.852Z,17.80
2017-11-04T11:59:55.875Z,17.70
2017-11-04T12:02:24.948Z,17.80
2017-11-04T12:04:56.518Z,17.80
2017-11-04T12:07:26.141Z,17.80
2017-11-04T12:09:58.993Z,17.80
2017-11-04T12:12:42.365Z,17.70
2017-11-04T12:15:13.009Z,17.70
2017-11-04T12:17:40.570Z,17.70
2017-11-04T12:20:08.224Z,17.70
2017-11-04T12:22:35.793Z,17.70
2017-11-04T12:25:07.493Z,17.60
2017-11-04T12:27:36.107Z,17.70
2017-11-04T12:30:05.958Z,17.70
2017-11-04T12:32:34.354Z,17.60
2017-11-04T12:35:02.404Z,17.60
2017-11-04T12:37:30.579Z,17.60
2017-11-04T12:40:01.354Z,17.70
2017-11-04T12:42:28.938Z,17.70
2017-11-04T12:44:59.138Z,17.80
2017-11-04T12:47:29.737Z,17.80
2017-11-04T12:49:59.742Z,17.90
2017-11-04T12:52:30.472Z,17.90
2017-11-04T12:55:00.747Z,18.00
2017-11-04T12:57:29.747Z,17.90
2017-11-04T13:00:00.796Z,17.90
2017-11-04T13:02:30.393Z,18.10
2017-11-04T13:05:00.229Z,18.20
2017-11-04T13:07:29.248Z,18.40
2017-11-04T13:09:58.411Z,18.50
2017-11-04T13:12:27.816Z,18.60
2017-11-04T13:14:57.954Z,18.90
2017-11-04T13:17:29.927Z,19.00
2017-11-04T13:19:59.151Z,19.00
2017-11-04T13:22:28.480Z,19.00
2017-11-04T13:24:59.894Z,19.40
2017-11-04T13:27:30.341Z,20.10
2017-11-04T13:30:00.277Z,20.60
2017-11-04T13:32:29.615Z,20.70
2017-11-04T13:34:59.583Z,20.70
2017-11-04T13:37:31.076Z,20.50
2017-11-04T13:40:00.014Z,20.10
2017-11-04T13:42:30.533Z,20.00
2017-11-04T13:44:59.978Z,19.70
2017-11-04T13:47:29.895Z,19.70
2017-11-04T13:49:59.366Z,19.50
2017-11-04T13:52:27.792Z,19.20
2017-11-04T13:54:56.710Z,19.10
2017-11-04T13:57:25.015Z,18.90
2017-11-04T13:59:53.984Z,18.80
2017-11-04T14:02:24.151Z,18.60
2017-11-04T14:04:55.968Z,18.40
2017-11-04T14:07:27.030Z,18.20
2017-11-04T14:09:56.913Z,18.20
2017-11-04T14:12:28.611Z,18.10
2017-11-04T14:14:59.163Z,18.10
2017-11-04T14:17:29.995Z,18.00
2017-11-04T14:19:59.592Z,18.00
2017-11-04T14:22:28.313Z,18.00
2017-11-04T14:24:58.820Z,18.00
2017-11-04T14:27:28.894Z,18.00
2017-11-04T14:30:02.512Z,17.90
2017-11-04T14:32:31.157Z,17.90
2017-11-04T14:35:00.686Z,17.80
2017-11-04T14:37:30.320Z,17.80
2017-11-04T14:39:59.750Z,17.90
2017-11-04T14:42:30.207Z,17.70
2017-11-04T14:44:59.797Z,17.80
2017-11-04T14:47:30.013Z,17.80
2017-11-04T14:50:00.595Z,17.80
2017-11-04T14:52:31.013Z,17.70
2017-11-04T14:55:01.244Z,17.60
2017-11-04T14:57:30.482Z,17.50
2017-11-04T15:00:00.917Z,17.50
2017-11-04T15:02:30.664Z,17.50
2017-11-04T15:05:00.073Z,17.30
2017-11-04T15:07:30.508Z,17.10
2017-11-04T15:10:00.552Z,17.10
2017-11-04T15:12:30.423Z,17.10
2017-11-04T15:15:00.036Z,17.10
2017-11-04T15:17:31.033Z,17.10
2017-11-04T15:20:00.337Z,17.10
2017-11-04T15:22:30.071Z,17.00
2017-11-04T15:24:59.900Z,16.80
2017-11-04T15:27:29.468Z,16.60
2017-11-04T15:30:00.676Z,16.50
2017-11-04T15:32:30.091Z,16.30
2017-11-04T15:34:59.646Z,16.40
2017-11-04T15:37:29.693Z,16.30
2017-11-04T15:39:59.143Z,16.30
2017-11-04T15:42:28.815Z,16.20
2017-11-04T15:45:00.888Z,16.10
2017-11-04T15:47:30.018Z,16.20
2017-11-04T15:50:00.246Z,16.10
2017-11-04T15:52:29.525Z,16.00
2017-11-04T15:54:59.660Z,15.90
2017-11-04T15:57:31.817Z,15.90
2017-11-04T16:00:03.949Z,15.60
2017-11-04T16:02:35.801Z,15.40
2017-11-04T16:05:08.541Z,15.40
2017-11-04T16:07:43.211Z,15.30
2017-11-04T16:10:19.199Z,15.00
2017-11-04T16:12:53.423Z,15.00
2017-11-04T16:15:28.441Z,14.90
2017-11-04T16:17:56.642Z,14.70
2017-11-04T16:20:27.143Z,14.50
2017-11-04T16:22:58.754Z,14.40
2017-11-04T16:25:29.541Z,14.30
2017-11-04T16:28:00.207Z,14.30
2017-11-04T16:30:30.158Z,14.30
2017-11-04T16:32:59.895Z,14.20
2017-11-04T16:35:30.311Z,14.10
2017-11-04T16:37:59.097Z,14.10
2017-11-04T16:40:29.717Z,13.90
2017-11-04T16:43:01.752Z,13.80
2017-11-04T16:45:30.622Z,13.80
2017-11-04T16:47:59.579Z,13.70
2017-11-04T16:50:29.547Z,13.70
2017-11-04T16:52:58.547Z,13.60
2017-11-04T16:55:29.649Z,13.60
2017-11-04T16:58:00.914Z,13.60
2017-11-04T17:00:41.325Z,13.60
2017-11-04T17:03:08.946Z,13.40
2017-11-04T17:05:36.532Z,13.40
2017-11-04T17:08:04.070Z,13.30
2017-11-04T17:10:32.420Z,13.20
2017-11-04T17:13:01.092Z,13.20
2017-11-04T17:15:30.420Z,13.20
2017-11-04T17:17:59.064Z,13.10
2017-11-04T17:20:28.843Z,13.00
2017-11-04T17:23:00.396Z,13.00
2017-11-04T17:25:30.015Z,13.00
2017-11-04T17:27:59.379Z,13.00
2017-11-04T17:30:29.011Z,13.00
2017-11-04T17:32:59.761Z,13.00
2017-11-04T17:35:30.039Z,13.00
2017-11-04T17:37:59.976Z,12.90
2017-11-04T17:40:29.889Z,12.90
2017-11-04T17:42:58.295Z,12.90
2017-11-04T17:45:26.982Z,12.80
2017-11-04T17:47:56.963Z,12.80
2017-11-04T17:50:25.678Z,12.80
2017-11-04T17:53:00.881Z,12.80
2017-11-04T17:55:31.518Z,12.80
2017-11-04T17:58:00.615Z,12.70
2017-11-04T18:00:30.372Z,12.70
2017-11-04T18:02:59.408Z,12.70
2017-11-04T18:05:27.833Z,12.70
2017-11-04T18:07:57.230Z,12.70
2017-11-04T18:10:25.908Z,12.60
2017-11-04T18:12:54.282Z,12.60
2017-11-04T18:15:22.892Z,12.60
2017-11-04T18:17:52.685Z,12.60
2017-11-04T18:20:20.334Z,12.60
2017-11-04T18:22:49.992Z,12.50
2017-11-04T18:25:21.705Z,12.50
2017-11-04T18:27:52.911Z,12.50
2017-11-04T18:30:23.872Z,12.50
2017-11-04T18:32:54.121Z,12.40
2017-11-04T18:35:23.261Z,12.40
2017-11-04T18:37:53.185Z,12.30
2017-11-04T18:40:27.279Z,12.40
2017-11-04T18:42:57.671Z,12.10
2017-11-04T18:45:25.805Z,12.10
2017-11-04T18:47:57.796Z,12.20
2017-11-04T18:50:29.918Z,12.00
2017-11-04T18:52:57.706Z,12.00
2017-11-04T18:55:26.936Z,11.80
2017-11-04T18:57:54.720Z,11.80
2017-11-04T19:00:24.656Z,11.90
2017-11-04T19:02:52.961Z,11.90
2017-11-04T19:05:21.584Z,11.80
2017-11-04T19:07:49.351Z,11.80
2017-11-04T19:10:16.923Z,11.80
2017-11-04T19:12:44.603Z,11.70
2017-11-04T19:15:12.967Z,11.70
2017-11-04T19:17:40.596Z,11.60
2017-11-04T19:20:09.416Z,11.60
2017-11-04T19:22:37.012Z,11.60
2017-11-04T19:25:05.592Z,11.60
2017-11-04T19:27:34.017Z,11.60
2017-11-04T19:30:01.611Z,11.50
2017-11-04T19:32:29.240Z,11.50
2017-11-04T19:34:56.782Z,11.50
2017-11-04T19:37:24.429Z,11.50
2017-11-04T19:39:53.031Z,11.50
2017-11-04T19:42:21.126Z,11.40
2017-11-04T19:44:49.540Z,11.50
2017-11-04T19:47:18.402Z,11.50
2017-11-04T19:49:46.189Z,11.50
2017-11-04T19:52:14.940Z,11.40
2017-11-04T19:54:42.560Z,11.40
2017-11-04T19:57:10.151Z,11.40
2017-11-04T19:59:37.749Z,11.50
2017-11-04T20:02:05.347Z,11.50
2017-11-04T20:04:32.983Z,11.40
2017-11-04T20:07:00.593Z,11.30
2017-11-04T20:09:28.225Z,11.40
2017-11-04T20:11:56.331Z,11.30
2017-11-04T20:14:24.796Z,11.40
2017-11-04T20:16:52.397Z,11.40
2017-11-04T20:19:20.842Z,11.20
2017-11-04T20:21:48.475Z,11.30
2017-11-04T20:24:16.222Z,11.20
2017-11-04T20:26:44.971Z,11.20
2017-11-04T20:29:13.505Z,11.20
2017-11-04T20:31:41.839Z,11.30
2017-11-04T20:34:10.256Z,11.20
2017-11-04T20:36:37.788Z,11.20
2017-11-04T20:39:06.176Z,11.20
2017-11-04T20:41:34.590Z,11.20
2017-11-04T20:44:03.032Z,11.20
2017-11-04T20:46:30.627Z,11.10
2017-11-04T20:48:58.200Z,11.10
2017-11-04T20:51:25.795Z,11.20
2017-11-04T20:53:54.230Z,11.30
2017-11-04T20:56:21.803Z,11.20
2017-11-04T20:58:50.199Z,11.30
2017-11-04T21:01:18.676Z,11.20
2017-11-04T21:03:46.316Z,11.20
2017-11-04T21:06:14.048Z,11.20
2017-11-04T21:08:41.687Z,11.20
2017-11-04T21:11:11.959Z,11.10
2017-11-04T21:13:41.177Z,11.30
2017-11-04T21:16:09.381Z,11.30
2017-11-04T21:18:38.513Z,11.40
2017-11-04T21:21:06.117Z,11.40
2017-11-04T21:23:34.647Z,11.40
2017-11-04T21:26:02.204Z,11.50
2017-11-04T21:28:31.378Z,11.40
2017-11-04T21:30:59.807Z,11.40
2017-11-04T21:33:27.439Z,11.40
2017-11-04T21:35:57.332Z,11.60
2017-11-04T21:38:24.919Z,11.60
2017-11-04T21:40:53.435Z,11.70
2017-11-04T21:43:22.343Z,11.80
2017-11-04T21:45:50.651Z,11.80
2017-11-04T21:48:18.985Z,11.90
2017-11-04T21:50:48.299Z,11.90
2017-11-04T21:53:17.396Z,11.90
2017-11-04T21:55:47.498Z,11.80
2017-11-04T21:58:16.019Z,11.80
2017-11-04T22:00:45.056Z,11.90
2017-11-04T22:03:15.863Z,11.90
2017-11-04T22:05:45.171Z,11.80
2017-11-04T22:08:13.472Z,11.90
2017-11-04T22:10:41.003Z,11.90
2017-11-04T22:13:09.574Z,12.00
2017-11-04T22:15:37.155Z,12.10
2017-11-04T22:18:04.791Z,12.00
2017-11-04T22:20:32.332Z,12.10
2017-11-04T22:23:01.546Z,12.20
2017-11-04T22:25:29.897Z,12.20
2017-11-04T22:27:58.875Z,12.20
2017-11-04T22:30:29.211Z,12.30
2017-11-04T22:32:58.542Z,12.20
2017-11-04T22:35:27.796Z,12.10
2017-11-04T22:37:56.769Z,12.10
2017-11-04T22:40:27.261Z,12.10
2017-11-04T22:42:55.585Z,12.10
2017-11-04T22:45:25.470Z,12.10
2017-11-04T22:47:53.720Z,12.10
2017-11-04T22:50:22.772Z,12.20
2017-11-04T22:52:56.619Z,12.30
2017-11-04T22:55:29.272Z,12.30
2017-11-04T22:57:59.371Z,12.30
2017-11-04T23:00:34.381Z,12.20
2017-11-04T23:03:02.724Z,12.30
2017-11-04T23:05:31.188Z,12.30
2017-11-04T23:08:01.415Z,12.30
2017-11-04T23:10:30.763Z,12.30
2017-11-04T23:13:00.864Z,12.30
2017-11-04T23:15:30.511Z,12.30
2017-11-04T23:17:59.393Z,12.30
2017-11-04T23:20:31.616Z,12.30
2017-11-04T23:23:02.362Z,12.30
2017-11-04T23:25:30.991Z,12.40
2017-11-04T23:28:01.330Z,12.40
2017-11-04T23:30:32.652Z,12.40
2017-11-04T23:33:02.263Z,12.50
2017-11-04T23:35:31.188Z,12.40
2017-11-04T23:37:59.028Z,12.50
2017-11-04T23:40:29.216Z,12.70
2017-11-04T23:42:58.592Z,12.70
2017-11-04T23:45:30.739Z,13.00
2017-11-04T23:48:02.454Z,13.00
2017-11-04T23:50:32.952Z,13.10
2017-11-04T23:53:02.510Z,13.10
2017-11-04T23:55:31.714Z,13.20
2017-11-04T23:58:01.144Z,13.30
